sensor_id;sensor_type;location;lat;lon;timestamp;P1;durP1;ratioP1;P2;durP2;ratioP2
42514;SDS011;28144;49.920;18.730;2023-07-31T00:01:07;7.63;;;3.20;;
42514;SDS011;28144;49.920;18.730;2023-07-31T00:03:33;7.93;;;3.72;;
42514;SDS011;28144;49.920;18.730;2023-07-31T00:05:58;4.83;;;3.13;;
42514;SDS011;28144;49.920;18.730;2023-07-31T00:08:24;5.97;;;3.47;;
42514;SDS011;28144;49.920;18.730;2023-07-31T00:10:53;3.83;;;2.92;;
42514;SDS011;28144;49.920;18.730;2023-07-31T00:13:19;4.50;;;3.05;;
42514;SDS011;28144;49.920;18.730;2023-07-31T00:15:45;5.53;;;2.90;;
42514;SDS011;28144;49.920;18.730;2023-07-31T00:18:11;5.80;;;2.95;;
42514;SDS011;28144;49.920;18.730;2023-07-31T00:20:36;8.10;;;3.50;;
42514;SDS011;28144;49.920;18.730;2023-07-31T00:23:02;3.55;;;2.75;;
42514;SDS011;28144;49.920;18.730;2023-07-31T00:25:28;8.37;;;3.00;;
42514;SDS011;28144;49.920;18.730;2023-07-31T00:27:53;6.07;;;3.05;;
42514;SDS011;28144;49.920;18.730;2023-07-31T00:30:19;5.40;;;2.97;;
42514;SDS011;28144;49.920;18.730;2023-07-31T00:35:20;4.22;;;3.05;;
42514;SDS011;28144;49.920;18.730;2023-07-31T00:37:46;6.10;;;3.00;;
42514;SDS011;28144;49.920;18.730;2023-07-31T00:40:11;4.73;;;3.13;;
42514;SDS011;28144;49.920;18.730;2023-07-31T00:42:39;4.95;;;2.92;;
42514;SDS011;28144;49.920;18.730;2023-07-31T00:45:05;4.23;;;2.97;;
42514;SDS011;28144;49.920;18.730;2023-07-31T00:47:31;3.83;;;2.85;;
42514;SDS011;28144;49.920;18.730;2023-07-31T00:49:57;7.15;;;3.13;;
42514;SDS011;28144;49.920;18.730;2023-07-31T00:52:23;3.55;;;2.88;;
42514;SDS011;28144;49.920;18.730;2023-07-31T00:54:48;4.30;;;2.60;;
42514;SDS011;28144;49.920;18.730;2023-07-31T00:57:14;6.25;;;2.80;;
42514;SDS011;28144;49.920;18.730;2023-07-31T00:59:40;8.07;;;3.00;;
42514;SDS011;28144;49.920;18.730;2023-07-31T01:02:06;3.97;;;2.97;;
42514;SDS011;28144;49.920;18.730;2023-07-31T01:04:32;7.23;;;3.33;;
42514;SDS011;28144;49.920;18.730;2023-07-31T01:12:03;5.68;;;2.92;;
42514;SDS011;28144;49.920;18.730;2023-07-31T01:14:29;8.20;;;2.90;;
42514;SDS011;28144;49.920;18.730;2023-07-31T01:16:55;9.88;;;3.28;;
42514;SDS011;28144;49.920;18.730;2023-07-31T01:19:22;5.50;;;2.73;;
42514;SDS011;28144;49.920;18.730;2023-07-31T01:27:15;6.38;;;2.95;;
42514;SDS011;28144;49.920;18.730;2023-07-31T01:29:44;4.97;;;3.22;;
42514;SDS011;28144;49.920;18.730;2023-07-31T01:32:13;4.82;;;2.83;;
42514;SDS011;28144;49.920;18.730;2023-07-31T01:34:39;4.22;;;2.80;;
42514;SDS011;28144;49.920;18.730;2023-07-31T01:37:06;14.45;;;3.97;;
42514;SDS011;28144;49.920;18.730;2023-07-31T01:39:31;5.67;;;3.17;;
42514;SDS011;28144;49.920;18.730;2023-07-31T01:41:57;6.10;;;2.80;;
42514;SDS011;28144;49.920;18.730;2023-07-31T01:44:23;11.73;;;3.00;;
42514;SDS011;28144;49.920;18.730;2023-07-31T01:46:49;4.97;;;3.10;;
42514;SDS011;28144;49.920;18.730;2023-07-31T01:49:14;6.47;;;3.20;;
42514;SDS011;28144;49.920;18.730;2023-07-31T01:51:40;5.53;;;3.08;;
42514;SDS011;28144;49.920;18.730;2023-07-31T01:54:06;5.40;;;3.33;;
42514;SDS011;28144;49.920;18.730;2023-07-31T01:56:32;9.00;;;3.42;;
42514;SDS011;28144;49.920;18.730;2023-07-31T01:58:57;5.00;;;3.37;;
42514;SDS011;28144;49.920;18.730;2023-07-31T02:01:23;6.55;;;3.40;;
42514;SDS011;28144;49.920;18.730;2023-07-31T02:03:49;5.77;;;2.87;;
42514;SDS011;28144;49.920;18.730;2023-07-31T02:06:16;5.78;;;3.10;;
42514;SDS011;28144;49.920;18.730;2023-07-31T02:08:42;8.93;;;3.80;;
42514;SDS011;28144;49.920;18.730;2023-07-31T02:11:08;6.00;;;3.15;;
42514;SDS011;28144;49.920;18.730;2023-07-31T02:13:33;6.57;;;3.27;;
42514;SDS011;28144;49.920;18.730;2023-07-31T02:15:59;4.80;;;3.13;;
42514;SDS011;28144;49.920;18.730;2023-07-31T02:18:25;7.17;;;2.50;;
42514;SDS011;28144;49.920;18.730;2023-07-31T02:20:51;4.28;;;2.20;;
42514;SDS011;28144;49.920;18.730;2023-07-31T02:23:20;3.20;;;1.67;;
42514;SDS011;28144;49.920;18.730;2023-07-31T02:25:46;3.40;;;2.10;;
42514;SDS011;28144;49.920;18.730;2023-07-31T02:28:12;2.97;;;1.83;;
42514;SDS011;28144;49.920;18.730;2023-07-31T02:30:38;2.92;;;2.00;;
42514;SDS011;28144;49.920;18.730;2023-07-31T02:33:04;4.63;;;1.92;;
42514;SDS011;28144;49.920;18.730;2023-07-31T02:35:30;7.63;;;2.15;;
42514;SDS011;28144;49.920;18.730;2023-07-31T02:37:56;3.53;;;2.20;;
42514;SDS011;28144;49.920;18.730;2023-07-31T02:40:22;5.15;;;2.38;;
42514;SDS011;28144;49.920;18.730;2023-07-31T02:42:48;4.10;;;1.83;;
42514;SDS011;28144;49.920;18.730;2023-07-31T02:45:14;4.43;;;1.80;;
42514;SDS011;28144;49.920;18.730;2023-07-31T02:47:40;3.23;;;1.67;;
42514;SDS011;28144;49.920;18.730;2023-07-31T02:50:06;2.72;;;1.52;;
42514;SDS011;28144;49.920;18.730;2023-07-31T02:52:32;2.90;;;1.60;;
42514;SDS011;28144;49.920;18.730;2023-07-31T02:54:58;3.92;;;1.80;;
42514;SDS011;28144;49.920;18.730;2023-07-31T02:57:23;4.40;;;1.90;;
42514;SDS011;28144;49.920;18.730;2023-07-31T02:59:49;4.32;;;1.75;;
42514;SDS011;28144;49.920;18.730;2023-07-31T03:02:15;3.13;;;1.93;;
42514;SDS011;28144;49.920;18.730;2023-07-31T03:04:41;2.90;;;1.88;;
42514;SDS011;28144;49.920;18.730;2023-07-31T03:07:06;4.30;;;1.70;;
42514;SDS011;28144;49.920;18.730;2023-07-31T03:09:32;3.75;;;1.50;;
42514;SDS011;28144;49.920;18.730;2023-07-31T03:11:58;5.93;;;1.90;;
42514;SDS011;28144;49.920;18.730;2023-07-31T03:14:24;6.85;;;1.55;;
42514;SDS011;28144;49.920;18.730;2023-07-31T03:16:51;7.93;;;1.88;;
42514;SDS011;28144;49.920;18.730;2023-07-31T03:19:17;3.33;;;1.70;;
42514;SDS011;28144;49.920;18.730;2023-07-31T03:21:43;6.45;;;1.88;;
42514;SDS011;28144;49.920;18.730;2023-07-31T03:24:09;5.47;;;2.08;;
42514;SDS011;28144;49.920;18.730;2023-07-31T03:26:35;5.30;;;1.50;;
42514;SDS011;28144;49.920;18.730;2023-07-31T03:29:02;4.40;;;1.70;;
42514;SDS011;28144;49.920;18.730;2023-07-31T03:31:27;2.88;;;1.90;;
42514;SDS011;28144;49.920;18.730;2023-07-31T03:33:54;4.90;;;2.03;;
42514;SDS011;28144;49.920;18.730;2023-07-31T03:36:19;2.97;;;1.53;;
42514;SDS011;28144;49.920;18.730;2023-07-31T03:38:46;3.95;;;1.63;;
42514;SDS011;28144;49.920;18.730;2023-07-31T03:41:11;8.48;;;2.10;;
42514;SDS011;28144;49.920;18.730;2023-07-31T03:43:37;5.25;;;1.60;;
42514;SDS011;28144;49.920;18.730;2023-07-31T03:46:03;3.33;;;1.77;;
42514;SDS011;28144;49.920;18.730;2023-07-31T03:48:29;2.65;;;1.63;;
42514;SDS011;28144;49.920;18.730;2023-07-31T03:50:55;3.23;;;1.80;;
42514;SDS011;28144;49.920;18.730;2023-07-31T03:53:21;4.90;;;1.90;;
42514;SDS011;28144;49.920;18.730;2023-07-31T03:55:46;7.10;;;2.20;;
42514;SDS011;28144;49.920;18.730;2023-07-31T03:58:12;3.95;;;1.70;;
42514;SDS011;28144;49.920;18.730;2023-07-31T04:00:39;3.30;;;1.87;;
42514;SDS011;28144;49.920;18.730;2023-07-31T04:03:05;7.10;;;2.08;;
42514;SDS011;28144;49.920;18.730;2023-07-31T04:05:31;4.37;;;2.00;;
42514;SDS011;28144;49.920;18.730;2023-07-31T04:07:58;7.03;;;2.13;;
42514;SDS011;28144;49.920;18.730;2023-07-31T04:10:23;6.53;;;2.00;;
42514;SDS011;28144;49.920;18.730;2023-07-31T04:12:49;5.10;;;2.28;;
42514;SDS011;28144;49.920;18.730;2023-07-31T04:15:15;3.67;;;2.20;;
42514;SDS011;28144;49.920;18.730;2023-07-31T04:17:41;8.88;;;2.00;;
42514;SDS011;28144;49.920;18.730;2023-07-31T04:20:07;2.67;;;2.20;;
42514;SDS011;28144;49.920;18.730;2023-07-31T04:24:59;5.47;;;2.42;;
42514;SDS011;28144;49.920;18.730;2023-07-31T04:27:25;4.35;;;2.13;;
42514;SDS011;28144;49.920;18.730;2023-07-31T04:29:50;3.23;;;2.07;;
42514;SDS011;28144;49.920;18.730;2023-07-31T04:32:17;5.18;;;2.03;;
42514;SDS011;28144;49.920;18.730;2023-07-31T04:34:43;6.33;;;2.47;;
42514;SDS011;28144;49.920;18.730;2023-07-31T04:37:09;3.90;;;2.10;;
42514;SDS011;28144;49.920;18.730;2023-07-31T04:39:34;4.32;;;1.95;;
42514;SDS011;28144;49.920;18.730;2023-07-31T04:42:00;5.05;;;2.25;;
42514;SDS011;28144;49.920;18.730;2023-07-31T04:44:26;5.23;;;2.60;;
42514;SDS011;28144;49.920;18.730;2023-07-31T04:46:52;4.38;;;1.65;;
42514;SDS011;28144;49.920;18.730;2023-07-31T04:49:19;6.13;;;1.77;;
42514;SDS011;28144;49.920;18.730;2023-07-31T04:51:45;3.08;;;2.28;;
42514;SDS011;28144;49.920;18.730;2023-07-31T04:54:10;8.50;;;1.98;;
42514;SDS011;28144;49.920;18.730;2023-07-31T04:56:38;2.60;;;1.80;;
42514;SDS011;28144;49.920;18.730;2023-07-31T04:59:03;2.45;;;1.92;;
42514;SDS011;28144;49.920;18.730;2023-07-31T05:01:30;4.75;;;1.98;;
42514;SDS011;28144;49.920;18.730;2023-07-31T05:03:55;4.27;;;2.10;;
42514;SDS011;28144;49.920;18.730;2023-07-31T05:06:21;4.35;;;2.17;;
42514;SDS011;28144;49.920;18.730;2023-07-31T05:08:47;4.87;;;1.97;;
42514;SDS011;28144;49.920;18.730;2023-07-31T05:11:13;5.30;;;1.63;;
42514;SDS011;28144;49.920;18.730;2023-07-31T05:13:39;9.07;;;2.33;;
42514;SDS011;28144;49.920;18.730;2023-07-31T05:16:05;1.38;;;1.27;;
42514;SDS011;28144;49.920;18.730;2023-07-31T05:18:30;4.22;;;1.70;;
42514;SDS011;28144;49.920;18.730;2023-07-31T05:20:56;3.55;;;1.40;;
42514;SDS011;28144;49.920;18.730;2023-07-31T05:23:22;9.02;;;1.95;;
42514;SDS011;28144;49.920;18.730;2023-07-31T05:25:48;4.10;;;2.08;;
42514;SDS011;28144;49.920;18.730;2023-07-31T05:28:14;5.28;;;1.67;;
42514;SDS011;28144;49.920;18.730;2023-07-31T05:30:40;4.85;;;1.52;;
42514;SDS011;28144;49.920;18.730;2023-07-31T05:33:06;4.53;;;2.03;;
42514;SDS011;28144;49.920;18.730;2023-07-31T05:35:32;2.33;;;1.50;;
42514;SDS011;28144;49.920;18.730;2023-07-31T05:37:58;5.78;;;1.67;;
42514;SDS011;28144;49.920;18.730;2023-07-31T05:40:24;2.92;;;1.70;;
42514;SDS011;28144;49.920;18.730;2023-07-31T05:42:51;3.33;;;1.60;;
42514;SDS011;28144;49.920;18.730;2023-07-31T05:45:17;3.47;;;1.80;;
42514;SDS011;28144;49.920;18.730;2023-07-31T05:47:42;2.72;;;1.45;;
42514;SDS011;28144;49.920;18.730;2023-07-31T05:50:09;5.70;;;1.80;;
42514;SDS011;28144;49.920;18.730;2023-07-31T05:52:34;3.03;;;1.63;;
42514;SDS011;28144;49.920;18.730;2023-07-31T05:55:00;3.17;;;1.58;;
42514;SDS011;28144;49.920;18.730;2023-07-31T05:57:26;4.43;;;1.70;;
42514;SDS011;28144;49.920;18.730;2023-07-31T05:59:52;5.32;;;1.90;;
42514;SDS011;28144;49.920;18.730;2023-07-31T06:02:18;3.55;;;1.40;;
42514;SDS011;28144;49.920;18.730;2023-07-31T06:04:44;6.88;;;2.03;;
42514;SDS011;28144;49.920;18.730;2023-07-31T06:07:10;6.90;;;1.70;;
42514;SDS011;28144;49.920;18.730;2023-07-31T06:09:36;3.78;;;1.70;;
42514;SDS011;28144;49.920;18.730;2023-07-31T06:12:02;3.23;;;1.60;;
42514;SDS011;28144;49.920;18.730;2023-07-31T06:14:28;2.95;;;1.65;;
42514;SDS011;28144;49.920;18.730;2023-07-31T06:16:53;4.75;;;1.60;;
42514;SDS011;28144;49.920;18.730;2023-07-31T06:19:19;4.75;;;1.65;;
42514;SDS011;28144;49.920;18.730;2023-07-31T06:21:45;3.40;;;1.58;;
42514;SDS011;28144;49.920;18.730;2023-07-31T06:24:11;5.40;;;1.80;;
42514;SDS011;28144;49.920;18.730;2023-07-31T06:26:38;5.25;;;1.58;;
42514;SDS011;28144;49.920;18.730;2023-07-31T06:29:04;2.15;;;1.40;;
42514;SDS011;28144;49.920;18.730;2023-07-31T06:31:29;5.13;;;1.50;;
42514;SDS011;28144;49.920;18.730;2023-07-31T06:33:56;6.00;;;1.35;;
42514;SDS011;28144;49.920;18.730;2023-07-31T06:36:21;4.70;;;1.73;;
42514;SDS011;28144;49.920;18.730;2023-07-31T06:38:47;7.65;;;1.83;;
42514;SDS011;28144;49.920;18.730;2023-07-31T06:41:13;5.40;;;1.97;;
42514;SDS011;28144;49.920;18.730;2023-07-31T06:43:39;8.15;;;2.15;;
42514;SDS011;28144;49.920;18.730;2023-07-31T06:46:07;12.03;;;2.80;;
42514;SDS011;28144;49.920;18.730;2023-07-31T06:48:34;6.00;;;1.77;;
42514;SDS011;28144;49.920;18.730;2023-07-31T06:51:00;3.97;;;1.73;;
42514;SDS011;28144;49.920;18.730;2023-07-31T06:53:26;4.47;;;1.65;;
42514;SDS011;28144;49.920;18.730;2023-07-31T06:55:52;6.60;;;1.95;;
42514;SDS011;28144;49.920;18.730;2023-07-31T06:58:18;3.75;;;1.60;;
42514;SDS011;28144;49.920;18.730;2023-07-31T07:00:43;4.32;;;1.50;;
42514;SDS011;28144;49.920;18.730;2023-07-31T07:03:09;3.47;;;1.88;;
42514;SDS011;28144;49.920;18.730;2023-07-31T07:05:35;3.88;;;1.58;;
42514;SDS011;28144;49.920;18.730;2023-07-31T07:08:01;5.78;;;1.65;;
42514;SDS011;28144;49.920;18.730;2023-07-31T07:10:26;4.15;;;1.40;;
42514;SDS011;28144;49.920;18.730;2023-07-31T07:12:52;2.90;;;1.67;;
42514;SDS011;28144;49.920;18.730;2023-07-31T07:15:18;7.18;;;1.80;;
42514;SDS011;28144;49.920;18.730;2023-07-31T07:17:44;4.50;;;1.88;;
42514;SDS011;28144;49.920;18.730;2023-07-31T07:20:10;4.13;;;1.67;;
42514;SDS011;28144;49.920;18.730;2023-07-31T07:22:36;3.75;;;1.50;;
42514;SDS011;28144;49.920;18.730;2023-07-31T07:25:02;4.90;;;1.65;;
42514;SDS011;28144;49.920;18.730;2023-07-31T07:27:30;3.72;;;1.60;;
42514;SDS011;28144;49.920;18.730;2023-07-31T07:29:55;4.75;;;1.75;;
42514;SDS011;28144;49.920;18.730;2023-07-31T07:32:21;5.60;;;1.45;;
42514;SDS011;28144;49.920;18.730;2023-07-31T07:34:50;3.70;;;1.60;;
42514;SDS011;28144;49.920;18.730;2023-07-31T07:37:16;8.43;;;2.00;;
42514;SDS011;28144;49.920;18.730;2023-07-31T07:39:41;6.53;;;2.13;;
42514;SDS011;28144;49.920;18.730;2023-07-31T07:44:33;5.20;;;1.60;;
42514;SDS011;28144;49.920;18.730;2023-07-31T07:46:59;3.45;;;1.50;;
42514;SDS011;28144;49.920;18.730;2023-07-31T07:49:25;4.77;;;1.40;;
42514;SDS011;28144;49.920;18.730;2023-07-31T07:51:51;4.50;;;1.75;;
42514;SDS011;28144;49.920;18.730;2023-07-31T07:54:16;5.15;;;1.40;;
42514;SDS011;28144;49.920;18.730;2023-07-31T07:56:42;6.20;;;1.58;;
42514;SDS011;28144;49.920;18.730;2023-07-31T07:59:08;7.00;;;1.77;;
42514;SDS011;28144;49.920;18.730;2023-07-31T08:01:34;5.78;;;1.38;;
42514;SDS011;28144;49.920;18.730;2023-07-31T08:03:59;5.72;;;1.73;;
42514;SDS011;28144;49.920;18.730;2023-07-31T08:06:25;3.50;;;1.30;;
42514;SDS011;28144;49.920;18.730;2023-07-31T08:08:51;5.47;;;1.55;;
42514;SDS011;28144;49.920;18.730;2023-07-31T08:11:17;7.82;;;1.48;;
42514;SDS011;28144;49.920;18.730;2023-07-31T08:13:42;4.00;;;1.30;;
42514;SDS011;28144;49.920;18.730;2023-07-31T08:16:08;4.85;;;2.38;;
42514;SDS011;28144;49.920;18.730;2023-07-31T08:18:35;4.10;;;1.45;;
42514;SDS011;28144;49.920;18.730;2023-07-31T08:21:04;4.63;;;1.65;;
42514;SDS011;28144;49.920;18.730;2023-07-31T08:23:30;4.70;;;1.52;;
42514;SDS011;28144;49.920;18.730;2023-07-31T08:25:56;5.05;;;1.40;;
42514;SDS011;28144;49.920;18.730;2023-07-31T08:28:21;3.88;;;1.52;;
42514;SDS011;28144;49.920;18.730;2023-07-31T08:30:47;3.70;;;1.30;;
42514;SDS011;28144;49.920;18.730;2023-07-31T08:33:13;4.38;;;1.55;;
42514;SDS011;28144;49.920;18.730;2023-07-31T08:35:39;5.43;;;1.42;;
42514;SDS011;28144;49.920;18.730;2023-07-31T08:38:04;5.18;;;1.75;;
42514;SDS011;28144;49.920;18.730;2023-07-31T08:40:30;4.75;;;1.33;;
42514;SDS011;28144;49.920;18.730;2023-07-31T08:42:56;4.97;;;1.50;;
42514;SDS011;28144;49.920;18.730;2023-07-31T08:45:24;3.67;;;1.60;;
42514;SDS011;28144;49.920;18.730;2023-07-31T08:47:51;3.80;;;2.08;;
42514;SDS011;28144;49.920;18.730;2023-07-31T08:50:18;3.33;;;1.48;;
42514;SDS011;28144;49.920;18.730;2023-07-31T08:52:48;4.72;;;1.50;;
42514;SDS011;28144;49.920;18.730;2023-07-31T08:55:14;6.10;;;1.85;;
42514;SDS011;28144;49.920;18.730;2023-07-31T08:57:40;3.25;;;1.35;;
42514;SDS011;28144;49.920;18.730;2023-07-31T09:00:07;5.18;;;1.95;;
42514;SDS011;28144;49.920;18.730;2023-07-31T09:02:35;4.25;;;1.85;;
42514;SDS011;28144;49.920;18.730;2023-07-31T09:05:05;12.65;;;2.15;;
42514;SDS011;28144;49.920;18.730;2023-07-31T09:07:34;5.75;;;2.10;;
42514;SDS011;28144;49.920;18.730;2023-07-31T09:10:00;6.88;;;2.35;;
42514;SDS011;28144;49.920;18.730;2023-07-31T09:12:26;6.38;;;1.92;;
42514;SDS011;28144;49.920;18.730;2023-07-31T09:14:52;5.15;;;2.20;;
42514;SDS011;28144;49.920;18.730;2023-07-31T09:17:28;4.15;;;1.88;;
42514;SDS011;28144;49.920;18.730;2023-07-31T09:22:39;5.38;;;2.17;;
42514;SDS011;28144;49.920;18.730;2023-07-31T09:28:01;4.82;;;2.70;;
42514;SDS011;28144;49.920;18.730;2023-07-31T09:30:28;7.15;;;2.33;;
42514;SDS011;28144;49.920;18.730;2023-07-31T09:33:01;6.38;;;2.15;;
42514;SDS011;28144;49.920;18.730;2023-07-31T09:35:29;6.78;;;2.10;;
42514;SDS011;28144;49.920;18.730;2023-07-31T09:37:58;7.18;;;1.90;;
42514;SDS011;28144;49.920;18.730;2023-07-31T09:40:35;4.60;;;2.15;;
42514;SDS011;28144;49.920;18.730;2023-07-31T09:43:05;6.32;;;2.20;;
42514;SDS011;28144;49.920;18.730;2023-07-31T09:45:44;6.38;;;2.05;;
42514;SDS011;28144;49.920;18.730;2023-07-31T09:48:12;8.93;;;2.28;;
42514;SDS011;28144;49.920;18.730;2023-07-31T09:50:43;4.55;;;2.03;;
42514;SDS011;28144;49.920;18.730;2023-07-31T09:53:09;8.98;;;1.83;;
42514;SDS011;28144;49.920;18.730;2023-07-31T09:55:36;6.10;;;2.03;;
42514;SDS011;28144;49.920;18.730;2023-07-31T09:58:06;4.40;;;1.50;;
42514;SDS011;28144;49.920;18.730;2023-07-31T10:00:34;8.68;;;1.75;;
42514;SDS011;28144;49.920;18.730;2023-07-31T10:03:01;5.05;;;1.83;;
42514;SDS011;28144;49.920;18.730;2023-07-31T10:05:31;8.27;;;1.92;;
42514;SDS011;28144;49.920;18.730;2023-07-31T10:07:59;6.30;;;1.70;;
42514;SDS011;28144;49.920;18.730;2023-07-31T10:10:25;3.97;;;1.60;;
42514;SDS011;28144;49.920;18.730;2023-07-31T10:12:53;4.15;;;1.50;;
42514;SDS011;28144;49.920;18.730;2023-07-31T10:15:19;5.10;;;1.90;;
42514;SDS011;28144;49.920;18.730;2023-07-31T10:17:48;4.20;;;1.67;;
42514;SDS011;28144;49.920;18.730;2023-07-31T10:20:15;2.97;;;1.35;;
42514;SDS011;28144;49.920;18.730;2023-07-31T10:22:44;4.68;;;1.15;;
42514;SDS011;28144;49.920;18.730;2023-07-31T10:25:11;4.60;;;1.77;;
42514;SDS011;28144;49.920;18.730;2023-07-31T10:27:38;5.35;;;1.42;;
42514;SDS011;28144;49.920;18.730;2023-07-31T10:30:08;7.70;;;1.65;;
42514;SDS011;28144;49.920;18.730;2023-07-31T10:32:39;5.97;;;1.50;;
42514;SDS011;28144;49.920;18.730;2023-07-31T10:35:07;6.25;;;1.85;;
42514;SDS011;28144;49.920;18.730;2023-07-31T10:37:37;3.45;;;1.48;;
42514;SDS011;28144;49.920;18.730;2023-07-31T10:40:05;5.70;;;1.60;;
42514;SDS011;28144;49.920;18.730;2023-07-31T10:42:49;7.65;;;1.70;;
42514;SDS011;28144;49.920;18.730;2023-07-31T10:45:42;3.67;;;1.70;;
42514;SDS011;28144;49.920;18.730;2023-07-31T10:48:05;4.93;;;1.55;;
42514;SDS011;28144;49.920;18.730;2023-07-31T10:50:32;4.25;;;1.77;;
42514;SDS011;28144;49.920;18.730;2023-07-31T10:53:02;5.63;;;1.73;;
42514;SDS011;28144;49.920;18.730;2023-07-31T10:58:06;5.88;;;1.55;;
42514;SDS011;28144;49.920;18.730;2023-07-31T11:00:32;4.50;;;1.98;;
42514;SDS011;28144;49.920;18.730;2023-07-31T11:03:16;6.53;;;1.52;;
42514;SDS011;28144;49.920;18.730;2023-07-31T11:05:53;6.35;;;1.80;;
42514;SDS011;28144;49.920;18.730;2023-07-31T11:08:26;6.03;;;1.48;;
42514;SDS011;28144;49.920;18.730;2023-07-31T11:18:19;6.75;;;1.80;;
42514;SDS011;28144;49.920;18.730;2023-07-31T11:20:45;5.10;;;1.40;;
42514;SDS011;28144;49.920;18.730;2023-07-31T11:23:11;5.22;;;1.83;;
42514;SDS011;28144;49.920;18.730;2023-07-31T11:32:59;6.63;;;1.58;;
42514;SDS011;28144;49.920;18.730;2023-07-31T11:35:27;3.00;;;1.30;;
42514;SDS011;28144;49.920;18.730;2023-07-31T11:37:53;5.70;;;1.38;;
42514;SDS011;28144;49.920;18.730;2023-07-31T11:40:19;3.28;;;1.25;;
42514;SDS011;28144;49.920;18.730;2023-07-31T11:42:45;3.22;;;1.20;;
42514;SDS011;28144;49.920;18.730;2023-07-31T11:45:11;7.18;;;1.65;;
42514;SDS011;28144;49.920;18.730;2023-07-31T11:47:36;3.92;;;1.83;;
42514;SDS011;28144;49.920;18.730;2023-07-31T11:50:03;4.63;;;1.50;;
42514;SDS011;28144;49.920;18.730;2023-07-31T11:52:30;4.65;;;1.50;;
42514;SDS011;28144;49.920;18.730;2023-07-31T11:54:58;3.83;;;1.40;;
42514;SDS011;28144;49.920;18.730;2023-07-31T11:59:49;4.38;;;1.30;;
42514;SDS011;28144;49.920;18.730;2023-07-31T12:04:43;4.50;;;1.58;;
42514;SDS011;28144;49.920;18.730;2023-07-31T12:07:08;4.15;;;1.20;;
42514;SDS011;28144;49.920;18.730;2023-07-31T12:09:34;5.32;;;1.25;;
42514;SDS011;28144;49.920;18.730;2023-07-31T12:12:00;5.32;;;1.40;;
42514;SDS011;28144;49.920;18.730;2023-07-31T12:14:27;8.57;;;1.60;;
42514;SDS011;28144;49.920;18.730;2023-07-31T12:17:00;3.42;;;1.25;;
42514;SDS011;28144;49.920;18.730;2023-07-31T12:19:29;4.15;;;1.55;;
42514;SDS011;28144;49.920;18.730;2023-07-31T12:21:58;3.90;;;1.25;;
42514;SDS011;28144;49.920;18.730;2023-07-31T12:24:26;5.97;;;1.42;;
42514;SDS011;28144;49.920;18.730;2023-07-31T12:26:52;6.57;;;1.55;;
42514;SDS011;28144;49.920;18.730;2023-07-31T12:31:43;4.80;;;1.70;;
42514;SDS011;28144;49.920;18.730;2023-07-31T12:34:20;4.50;;;1.40;;
42514;SDS011;28144;49.920;18.730;2023-07-31T12:36:48;6.07;;;1.58;;
42514;SDS011;28144;49.920;18.730;2023-07-31T12:41:40;4.43;;;1.60;;
42514;SDS011;28144;49.920;18.730;2023-07-31T12:44:06;2.88;;;1.33;;
42514;SDS011;28144;49.920;18.730;2023-07-31T12:46:33;5.45;;;1.40;;
42514;SDS011;28144;49.920;18.730;2023-07-31T12:51:24;3.42;;;1.20;;
42514;SDS011;28144;49.920;18.730;2023-07-31T12:53:50;6.50;;;1.50;;
42514;SDS011;28144;49.920;18.730;2023-07-31T12:56:16;5.03;;;1.67;;
42514;SDS011;28144;49.920;18.730;2023-07-31T12:58:43;6.30;;;1.23;;
42514;SDS011;28144;49.920;18.730;2023-07-31T13:01:09;5.10;;;1.83;;
42514;SDS011;28144;49.920;18.730;2023-07-31T13:06:00;5.68;;;1.40;;
42514;SDS011;28144;49.920;18.730;2023-07-31T13:08:27;7.65;;;1.70;;
42514;SDS011;28144;49.920;18.730;2023-07-31T13:10:52;4.30;;;1.25;;
42514;SDS011;28144;49.920;18.730;2023-07-31T13:13:18;6.75;;;1.40;;
42514;SDS011;28144;49.920;18.730;2023-07-31T13:15:44;4.88;;;1.50;;
42514;SDS011;28144;49.920;18.730;2023-07-31T13:18:11;4.82;;;1.42;;
42514;SDS011;28144;49.920;18.730;2023-07-31T13:20:36;6.32;;;1.85;;
42514;SDS011;28144;49.920;18.730;2023-07-31T13:23:02;5.10;;;1.20;;
42514;SDS011;28144;49.920;18.730;2023-07-31T13:25:28;5.35;;;1.27;;
42514;SDS011;28144;49.920;18.730;2023-07-31T13:27:54;2.78;;;1.25;;
42514;SDS011;28144;49.920;18.730;2023-07-31T13:30:20;5.43;;;1.10;;
42514;SDS011;28144;49.920;18.730;2023-07-31T13:32:46;5.32;;;1.50;;
42514;SDS011;28144;49.920;18.730;2023-07-31T13:35:11;6.68;;;1.35;;
42514;SDS011;28144;49.920;18.730;2023-07-31T13:37:37;5.65;;;1.23;;
42514;SDS011;28144;49.920;18.730;2023-07-31T13:40:03;9.20;;;1.52;;
42514;SDS011;28144;49.920;18.730;2023-07-31T13:42:32;11.02;;;1.38;;
42514;SDS011;28144;49.920;18.730;2023-07-31T13:44:58;7.75;;;1.30;;
42514;SDS011;28144;49.920;18.730;2023-07-31T13:47:24;9.60;;;1.38;;
42514;SDS011;28144;49.920;18.730;2023-07-31T13:49:50;5.78;;;1.23;;
42514;SDS011;28144;49.920;18.730;2023-07-31T13:52:15;4.82;;;1.10;;
42514;SDS011;28144;49.920;18.730;2023-07-31T13:54:41;2.92;;;1.10;;
42514;SDS011;28144;49.920;18.730;2023-07-31T13:57:08;3.67;;;1.13;;
42514;SDS011;28144;49.920;18.730;2023-07-31T13:59:34;4.13;;;1.00;;
42514;SDS011;28144;49.920;18.730;2023-07-31T14:01:59;2.28;;;0.80;;
42514;SDS011;28144;49.920;18.730;2023-07-31T14:04:27;4.03;;;1.00;;
42514;SDS011;28144;49.920;18.730;2023-07-31T14:06:52;2.95;;;1.00;;
42514;SDS011;28144;49.920;18.730;2023-07-31T14:09:18;11.40;;;1.27;;
42514;SDS011;28144;49.920;18.730;2023-07-31T14:11:44;3.33;;;0.90;;
42514;SDS011;28144;49.920;18.730;2023-07-31T14:14:11;3.22;;;1.08;;
42514;SDS011;28144;49.920;18.730;2023-07-31T14:16:38;6.72;;;1.30;;
42514;SDS011;28144;49.920;18.730;2023-07-31T14:19:04;3.63;;;1.30;;
42514;SDS011;28144;49.920;18.730;2023-07-31T14:21:33;4.50;;;1.38;;
42514;SDS011;28144;49.920;18.730;2023-07-31T14:23:59;4.30;;;1.10;;
42514;SDS011;28144;49.920;18.730;2023-07-31T14:26:25;4.82;;;0.95;;
42514;SDS011;28144;49.920;18.730;2023-07-31T14:28:50;6.90;;;1.20;;
42514;SDS011;28144;49.920;18.730;2023-07-31T14:31:16;2.63;;;1.35;;
42514;SDS011;28144;49.920;18.730;2023-07-31T14:33:42;5.18;;;1.33;;
42514;SDS011;28144;49.920;18.730;2023-07-31T14:36:08;5.85;;;1.55;;
42514;SDS011;28144;49.920;18.730;2023-07-31T14:38:33;6.85;;;1.30;;
42514;SDS011;28144;49.920;18.730;2023-07-31T14:40:59;4.25;;;1.20;;
42514;SDS011;28144;49.920;18.730;2023-07-31T14:43:25;5.53;;;1.42;;
42514;SDS011;28144;49.920;18.730;2023-07-31T14:45:51;4.57;;;1.35;;
42514;SDS011;28144;49.920;18.730;2023-07-31T14:48:18;7.68;;;1.50;;
42514;SDS011;28144;49.920;18.730;2023-07-31T14:50:45;4.10;;;1.50;;
42514;SDS011;28144;49.920;18.730;2023-07-31T14:53:11;4.68;;;1.42;;
42514;SDS011;28144;49.920;18.730;2023-07-31T14:58:53;4.18;;;1.13;;
42514;SDS011;28144;49.920;18.730;2023-07-31T15:01:19;6.20;;;1.60;;
42514;SDS011;28144;49.920;18.730;2023-07-31T15:03:44;10.15;;;1.80;;
42514;SDS011;28144;49.920;18.730;2023-07-31T15:06:14;3.50;;;1.20;;
42514;SDS011;28144;49.920;18.730;2023-07-31T15:08:39;3.65;;;1.40;;
42514;SDS011;28144;49.920;18.730;2023-07-31T15:11:07;4.07;;;1.63;;
42514;SDS011;28144;49.920;18.730;2023-07-31T15:13:32;5.63;;;1.20;;
42514;SDS011;28144;49.920;18.730;2023-07-31T15:15:58;6.20;;;1.33;;
42514;SDS011;28144;49.920;18.730;2023-07-31T15:18:24;8.02;;;1.40;;
42514;SDS011;28144;49.920;18.730;2023-07-31T15:20:50;2.90;;;1.35;;
42514;SDS011;28144;49.920;18.730;2023-07-31T15:23:16;7.97;;;1.55;;
42514;SDS011;28144;49.920;18.730;2023-07-31T15:25:42;3.67;;;1.30;;
42514;SDS011;28144;49.920;18.730;2023-07-31T15:28:10;3.58;;;1.40;;